Time;durP1;ratioP1;P1;durP2;ratioP2;P2;SDS_P1;SDS_P2;PMS_P1;PMS_P2;Temp;Humidity;BMP_temperature;BMP_pressure;BME280_temperature;BME280_humidity;BME280_pressure;Samples;Min_cycle;Max_cycle;Signal;HPM_P1;HPM_P2
2021/09/20 00:01:53;;;;;;;7.30;5.47;;;;;;;;;;5036590;28;20029;-59
2021/09/20 00:04:19;;;;;;;7.23;5.33;;;;;;;;;;5036511;28;20478;-59
2021/09/20 00:06:45;;;;;;;6.35;5.47;;;;;;;;;;5036332;28;20026;-58
2021/09/20 00:09:11;;;;;;;7.30;5.63;;;;;;;;;;5036376;28;20037;-58
2021/09/20 00:11:37;;;;;;;5.60;5.07;;;;;;;;;;5002153;28;20029;-59
2021/09/20 00:14:03;;;;;;;6.60;5.38;;;;;;;;;;5036079;28;20440;-59
2021/09/20 00:16:29;;;;;;;8.25;5.03;;;;;;;;;;5018820;28;20353;-59
2021/09/20 00:18:55;;;;;;;5.85;4.95;;;;;;;;;;5036443;28;20060;-59
2021/09/20 00:21:21;;;;;;;7.10;4.72;;;;;;;;;;5036414;28;20033;-58
2021/09/20 00:23:47;;;;;;;7.20;4.55;;;;;;;;;;5019061;28;20033;-58
2021/09/20 00:26:13;;;;;;;6.80;4.80;;;;;;;;;;5018611;28;20068;-58
2021/09/20 00:28:42;;;;;;;6.70;5.05;;;;;;;;;;5036000;28;20029;-59
2021/09/20 00:31:08;;;;;;;6.13;5.07;;;;;;;;;;5018268;28;20036;-59
2021/09/20 00:33:34;;;;;;;6.95;5.20;;;;;;;;;;5018468;28;20125;-59
2021/09/20 00:36:01;;;;;;;5.22;4.65;;;;;;;;;;5001615;28;20022;-59
2021/09/20 00:38:27;;;;;;;4.68;3.95;;;;;;;;;;5035642;28;20489;-59
2021/09/20 00:40:53;;;;;;;7.13;4.78;;;;;;;;;;5017831;28;20456;-59
2021/09/20 00:43:19;;;;;;;5.15;4.13;;;;;;;;;;5036165;28;20021;-59
2021/09/20 00:45:45;;;;;;;6.53;4.68;;;;;;;;;;5035202;28;20025;-59
2021/09/20 00:48:14;;;;;;;6.82;5.03;;;;;;;;;;5035024;28;20036;-58
2021/09/20 00:50:42;;;;;;;5.88;4.28;;;;;;;;;;5035921;28;20349;-59
2021/09/20 00:53:09;;;;;;;5.78;5.20;;;;;;;;;;5035294;28;20029;-59
2021/09/20 00:55:35;;;;;;;5.72;4.68;;;;;;;;;;5035069;28;20021;-58
2021/09/20 00:58:04;;;;;;;6.57;4.97;;;;;;;;;;5035206;28;20368;-59
2021/09/20 01:00:31;;;;;;;5.75;5.15;;;;;;;;;;5035168;28;20108;-58
2021/09/20 01:02:57;;;;;;;8.70;5.78;;;;;;;;;;5017475;28;20042;-58
2021/09/20 01:05:23;;;;;;;8.55;4.15;;;;;;;;;;5035237;28;20033;-58
2021/09/20 01:07:49;;;;;;;5.90;5.30;;;;;;;;;;5017327;28;20033;-58
2021/09/20 01:10:15;;;;;;;7.10;5.28;;;;;;;;;;5034651;28;20546;-59
2021/09/20 01:12:41;;;;;;;6.80;5.43;;;;;;;;;;5017549;28;20029;-59
2021/09/20 01:15:08;;;;;;;5.13;4.45;;;;;;;;;;5034723;28;20514;-59
2021/09/20 01:17:34;;;;;;;6.65;5.78;;;;;;;;;;5035058;28;20064;-59
2021/09/20 01:20:00;;;;;;;7.22;5.78;;;;;;;;;;5034775;28;20021;-59
2021/09/20 01:22:26;;;;;;;6.93;5.50;;;;;;;;;;5017607;28;20133;-59
2021/09/20 01:24:54;;;;;;;5.65;4.25;;;;;;;;;;5016846;28;20490;-59
2021/09/20 01:27:21;;;;;;;6.95;5.72;;;;;;;;;;5034573;28;20044;-58
2021/09/20 01:29:47;;;;;;;5.60;5.10;;;;;;;;;;5034782;28;20029;-58
2021/09/20 01:32:14;;;;;;;8.07;5.72;;;;;;;;;;5034815;28;20160;-59
2021/09/20 01:34:40;;;;;;;6.28;5.63;;;;;;;;;;5016713;28;20021;-59
2021/09/20 01:37:06;;;;;;;7.05;4.93;;;;;;;;;;5016979;28;20345;-59
2021/09/20 01:39:33;;;;;;;7.93;6.18;;;;;;;;;;5034732;28;20032;-59
2021/09/20 01:41:59;;;;;;;7.63;5.63;;;;;;;;;;5034717;28;20111;-59
2021/09/20 01:44:26;;;;;;;7.88;5.95;;;;;;;;;;5034740;28;20042;-59
2021/09/20 01:46:53;;;;;;;6.53;5.75;;;;;;;;;;5016816;28;20494;-59
2021/09/20 01:49:19;;;;;;;6.18;5.25;;;;;;;;;;5034233;28;20030;-59
2021/09/20 01:51:46;;;;;;;6.75;5.05;;;;;;;;;;5034504;28;20104;-59
2021/09/20 01:54:12;;;;;;;6.93;5.55;;;;;;;;;;5034235;28;20026;-58
2021/09/20 01:56:41;;;;;;;6.35;5.50;;;;;;;;;;5034220;28;20022;-59
2021/09/20 01:59:07;;;;;;;5.35;4.82;;;;;;;;;;5033802;28;20077;-59
2021/09/20 02:01:33;;;;;;;7.05;6.07;;;;;;;;;;5033380;28;20124;-58
2021/09/20 02:03:59;;;;;;;8.30;5.55;;;;;;;;;;5016930;28;20444;-59
2021/09/20 02:06:26;;;;;;;6.03;5.10;;;;;;;;;;5034292;28;20025;-59
2021/09/20 02:08:53;;;;;;;6.25;5.35;;;;;;;;;;5034404;28;20470;-59
2021/09/20 02:11:19;;;;;;;7.22;5.40;;;;;;;;;;5033968;28;20114;-59
2021/09/20 02:13:45;;;;;;;7.65;5.07;;;;;;;;;;5033857;28;20053;-58
2021/09/20 02:16:12;;;;;;;5.40;4.60;;;;;;;;;;5033910;28;20033;-59
2021/09/20 02:18:40;;;;;;;7.18;5.78;;;;;;;;;;5033822;28;20029;-58
2021/09/20 02:21:07;;;;;;;4.97;4.30;;;;;;;;;;5033855;28;20030;-58
2021/09/20 02:23:33;;;;;;;6.03;5.03;;;;;;;;;;5016681;28;20132;-59
2021/09/20 02:25:59;;;;;;;6.60;5.85;;;;;;;;;;5016624;28;20096;-59
2021/09/20 02:28:25;;;;;;;6.40;5.25;;;;;;;;;;5033705;28;20056;-59
2021/09/20 02:30:51;;;;;;;7.70;5.03;;;;;;;;;;5033851;28;20022;-59
2021/09/20 02:33:22;;;;;;;6.15;4.80;;;;;;;;;;5016253;28;20032;-59
2021/09/20 02:35:48;;;;;;;9.70;5.45;;;;;;;;;;5033706;28;20029;-59
2021/09/20 02:38:14;;;;;;;7.07;5.90;;;;;;;;;;5015904;28;20117;-59
2021/09/20 02:40:40;;;;;;;5.50;4.90;;;;;;;;;;5015937;28;20021;-59
2021/09/20 02:43:06;;;;;;;7.05;6.22;;;;;;;;;;5033554;28;20028;-59
2021/09/20 02:45:32;;;;;;;7.38;5.75;;;;;;;;;;5033857;28;20048;-59
2021/09/20 02:47:58;;;;;;;10.43;5.78;;;;;;;;;;5016543;28;20364;-59
2021/09/20 02:50:27;;;;;;;6.53;5.38;;;;;;;;;;5033367;28;20482;-59
2021/09/20 02:52:53;;;;;;;5.75;5.03;;;;;;;;;;5015713;28;20026;-59
2021/09/20 02:55:19;;;;;;;6.40;5.40;;;;;;;;;;5033485;28;20036;-59
2021/09/20 02:57:48;;;;;;;6.43;5.13;;;;;;;;;;5033395;28;20029;-59
2021/09/20 03:00:14;;;;;;;6.35;5.75;;;;;;;;;;5033442;28;20419;-58
2021/09/20 03:02:43;;;;;;;6.88;5.30;;;;;;;;;;5000324;28;20033;-59
2021/09/20 03:05:09;;;;;;;6.63;4.85;;;;;;;;;;5033299;28;20022;-59
2021/09/20 03:07:35;;;;;;;6.13;5.20;;;;;;;;;;5016319;28;20456;-59
2021/09/20 03:10:01;;;;;;;8.18;5.50;;;;;;;;;;5033283;28;20030;-59
2021/09/20 03:12:27;;;;;;;7.25;5.75;;;;;;;;;;5037172;28;20025;-59
2021/09/20 03:14:53;;;;;;;7.50;5.78;;;;;;;;;;5037854;28;20147;-58
2021/09/20 03:17:19;;;;;;;5.70;4.63;;;;;;;;;;5037140;28;20142;-59
2021/09/20 03:19:46;;;;;;;8.52;6.57;;;;;;;;;;5019937;28;20476;-59
2021/09/20 03:22:12;;;;;;;6.13;5.53;;;;;;;;;;5037420;28;20022;-59
2021/09/20 03:24:38;;;;;;;7.18;5.38;;;;;;;;;;5018911;28;20032;-59
2021/09/20 03:27:05;;;;;;;6.80;4.85;;;;;;;;;;5036886;28;20380;-59
2021/09/20 03:29:31;;;;;;;9.00;6.85;;;;;;;;;;5036800;28;20030;-59
2021/09/20 03:31:57;;;;;;;9.43;6.32;;;;;;;;;;5037080;28;20026;-59
2021/09/20 03:34:23;;;;;;;6.43;5.40;;;;;;;;;;5037112;28;20032;-59
2021/09/20 03:36:49;;;;;;;6.72;5.72;;;;;;;;;;5036751;28;20452;-59
2021/09/20 03:39:15;;;;;;;9.75;6.28;;;;;;;;;;5019210;28;20026;-59
2021/09/20 03:41:41;;;;;;;9.48;6.03;;;;;;;;;;5036726;28;20124;-59
2021/09/20 03:44:07;;;;;;;9.18;5.38;;;;;;;;;;5019857;28;20065;-59
2021/09/20 03:46:33;;;;;;;7.70;5.95;;;;;;;;;;5037250;28;20032;-59
2021/09/20 03:48:59;;;;;;;7.95;5.53;;;;;;;;;;5036603;28;20360;-59
2021/09/20 03:51:27;;;;;;;6.95;6.05;;;;;;;;;;5037586;28;20145;-59
2021/09/20 03:53:53;;;;;;;6.97;5.40;;;;;;;;;;5002576;28;20113;-59
2021/09/20 03:56:19;;;;;;;9.57;6.97;;;;;;;;;;5036530;28;20443;-59
2021/09/20 03:58:45;;;;;;;6.93;5.30;;;;;;;;;;5036756;28;20083;-59
2021/09/20 04:01:11;;;;;;;7.22;5.60;;;;;;;;;;5036431;28;20377;-59
2021/09/20 04:03:37;;;;;;;7.72;5.97;;;;;;;;;;5019480;28;20084;-59
2021/09/20 04:06:06;;;;;;;6.68;5.70;;;;;;;;;;5036477;28;20021;-59
2021/09/20 04:08:32;;;;;;;7.40;5.90;;;;;;;;;;5036113;28;20034;-59
2021/09/20 04:10:58;;;;;;;6.82;5.55;;;;;;;;;;5018704;28;20037;-59
2021/09/20 04:13:30;;;;;;;5.72;4.93;;;;;;;;;;5036067;28;20056;-59
2021/09/20 04:15:56;;;;;;;6.63;5.55;;;;;;;;;;5018970;28;20116;-59
2021/09/20 04:18:22;;;;;;;6.35;5.28;;;;;;;;;;5018191;28;20482;-59
2021/09/20 04:20:51;;;;;;;5.95;5.05;;;;;;;;;;5018309;28;20456;-59
2021/09/20 04:23:17;;;;;;;7.80;6.18;;;;;;;;;;5033038;28;20048;-59
2021/09/20 04:25:43;;;;;;;7.00;5.68;;;;;;;;;;5017914;28;20109;-59
2021/09/20 04:28:12;;;;;;;7.03;5.82;;;;;;;;;;5035759;28;20025;-59
2021/09/20 04:30:40;;;;;;;8.63;5.90;;;;;;;;;;5035850;28;20052;-59
2021/09/20 04:33:06;;;;;;;7.95;5.90;;;;;;;;;;5036145;28;20057;-59
2021/09/20 04:35:32;;;;;;;5.88;5.22;;;;;;;;;;5018439;28;20029;-59
2021/09/20 04:37:58;;;;;;;7.82;5.80;;;;;;;;;;5018597;28;20033;-59
2021/09/20 04:40:24;;;;;;;6.30;5.07;;;;;;;;;;5035664;28;20048;-59
2021/09/20 04:42:50;;;;;;;8.20;6.18;;;;;;;;;;5035916;28;20113;-59
2021/09/20 04:45:16;;;;;;;6.10;5.32;;;;;;;;;;5036027;28;20057;-59
2021/09/20 04:47:42;;;;;;;7.03;5.28;;;;;;;;;;5001902;28;20064;-59
2021/09/20 04:50:08;;;;;;;6.10;5.50;;;;;;;;;;5017916;28;20425;-59
2021/09/20 04:52:34;;;;;;;8.27;5.75;;;;;;;;;;5001883;28;20379;-59
2021/09/20 04:55:00;;;;;;;8.60;6.07;;;;;;;;;;5035358;28;20510;-59
2021/09/20 04:57:26;;;;;;;7.85;6.22;;;;;;;;;;5035453;28;20044;-59
2021/09/20 04:59:52;;;;;;;8.65;6.22;;;;;;;;;;5035431;28;20349;-59
2021/09/20 05:02:18;;;;;;;5.97;4.93;;;;;;;;;;5035687;28;20159;-59
2021/09/20 05:04:44;;;;;;;8.07;6.00;;;;;;;;;;5035521;28;20022;-59
2021/09/20 05:07:10;;;;;;;7.05;6.35;;;;;;;;;;5035449;28;20040;-59
2021/09/20 05:09:36;;;;;;;8.57;6.32;;;;;;;;;;5034843;28;20040;-59
2021/09/20 05:12:02;;;;;;;7.78;5.75;;;;;;;;;;5018017;28;20021;-59
2021/09/20 05:14:28;;;;;;;9.43;6.80;;;;;;;;;;5035091;28;20081;-59
2021/09/20 05:16:58;;;;;;;7.30;5.72;;;;;;;;;;5035400;28;20076;-59
2021/09/20 05:19:24;;;;;;;11.82;7.05;;;;;;;;;;5017673;28;20116;-59
2021/09/20 05:21:50;;;;;;;6.13;5.53;;;;;;;;;;5017662;28;20443;-58
2021/09/20 05:24:18;;;;;;;10.07;5.85;;;;;;;;;;5034804;28;20028;-59
2021/09/20 05:26:44;;;;;;;6.05;5.28;;;;;;;;;;5017094;28;20037;-59
2021/09/20 05:29:10;;;;;;;9.77;5.95;;;;;;;;;;5034588;28;20033;-59
2021/09/20 05:31:39;;;;;;;7.75;5.88;;;;;;;;;;5034694;28;20508;-59
2021/09/20 05:34:05;;;;;;;6.45;5.45;;;;;;;;;;5035062;28;20029;-59
2021/09/20 05:36:31;;;;;;;8.27;6.50;;;;;;;;;;5017577;28;20080;-58
2021/09/20 05:38:57;;;;;;;7.80;6.45;;;;;;;;;;5034499;28;20037;-59
2021/09/20 05:41:26;;;;;;;7.80;5.65;;;;;;;;;;5034302;28;20030;-59
2021/09/20 05:43:52;;;;;;;7.55;5.65;;;;;;;;;;5034905;28;20474;-59
2021/09/20 05:46:18;;;;;;;9.63;6.60;;;;;;;;;;5017458;28;20068;-59
2021/09/20 05:48:44;;;;;;;10.98;5.95;;;;;;;;;;5017396;28;20034;-59
2021/09/20 05:51:11;;;;;;;8.40;5.75;;;;;;;;;;5034617;28;20044;-59
2021/09/20 05:53:37;;;;;;;7.38;6.20;;;;;;;;;;5017019;28;20132;-59
2021/09/20 05:56:03;;;;;;;9.02;6.22;;;;;;;;;;5016444;28;20025;-59
2021/09/20 05:58:29;;;;;;;9.57;6.05;;;;;;;;;;5034155;28;20025;-59
2021/09/20 06:00:55;;;;;;;8.07;6.05;;;;;;;;;;5034377;28;20021;-59
2021/09/20 06:03:22;;;;;;;7.00;5.95;;;;;;;;;;5034432;28;20116;-59
2021/09/20 06:05:48;;;;;;;9.23;6.22;;;;;;;;;;5034712;28;20036;-59
2021/09/20 06:08:14;;;;;;;7.10;5.32;;;;;;;;;;5034005;28;20033;-59
2021/09/20 06:10:40;;;;;;;7.68;5.65;;;;;;;;;;5033989;28;20040;-59
2021/09/20 06:13:08;;;;;;;8.82;7.22;;;;;;;;;;5034117;28;20061;-59
2021/09/20 06:15:35;;;;;;;8.23;6.60;;;;;;;;;;5034672;28;20371;-59
2021/09/20 06:18:01;;;;;;;7.30;6.10;;;;;;;;;;5033821;28;20550;-59
2021/09/20 06:20:27;;;;;;;7.57;6.50;;;;;;;;;;5033793;28;20026;-59
2021/09/20 06:22:53;;;;;;;9.38;7.40;;;;;;;;;;5034151;28;20026;-59
2021/09/20 06:25:20;;;;;;;7.63;5.70;;;;;;;;;;5033764;28;20659;-59
2021/09/20 06:27:46;;;;;;;8.75;6.65;;;;;;;;;;5034222;28;20040;-59
2021/09/20 06:30:12;;;;;;;8.75;6.85;;;;;;;;;;5033957;28;20375;-59
2021/09/20 06:32:38;;;;;;;9.23;6.95;;;;;;;;;;4999905;28;20029;-59
2021/09/20 06:35:05;;;;;;;7.72;6.05;;;;;;;;;;5015893;28;20037;-59
2021/09/20 06:37:31;;;;;;;9.45;7.53;;;;;;;;;;5033511;28;20083;-59
2021/09/20 06:39:57;;;;;;;8.02;6.70;;;;;;;;;;5033594;28;20080;-59
2021/09/20 06:42:23;;;;;;;8.45;6.32;;;;;;;;;;5033562;28;20021;-59
2021/09/20 06:44:50;;;;;;;12.25;7.97;;;;;;;;;;5033094;28;20065;-58
2021/09/20 06:47:20;;;;;;;8.95;8.05;;;;;;;;;;5033317;28;20144;-59
2021/09/20 06:49:46;;;;;;;13.75;8.90;;;;;;;;;;5033562;28;20037;-59
2021/09/20 06:52:15;;;;;;;10.98;8.55;;;;;;;;;;5034064;28;20113;-59
2021/09/20 06:54:41;;;;;;;9.75;8.30;;;;;;;;;;5015962;28;20025;-59
2021/09/20 06:57:07;;;;;;;13.07;8.82;;;;;;;;;;5033325;28;20018;-59
2021/09/20 06:59:33;;;;;;;12.07;10.63;;;;;;;;;;5033367;28;20508;-59
2021/09/20 07:01:59;;;;;;;14.10;9.23;;;;;;;;;;5033671;28;20068;-59
2021/09/20 07:04:25;;;;;;;14.10;10.13;;;;;;;;;;5033432;28;20196;-59
2021/09/20 07:06:54;;;;;;;11.45;9.57;;;;;;;;;;5033548;28;20508;-59
2021/09/20 07:09:20;;;;;;;10.80;9.35;;;;;;;;;;5033602;28;20042;-59
2021/09/20 07:11:49;;;;;;;8.75;7.15;;;;;;;;;;5015830;28;20025;-59
2021/09/20 07:14:16;;;;;;;9.77;7.10;;;;;;;;;;5015534;28;20151;-59
2021/09/20 07:16:42;;;;;;;6.75;6.05;;;;;;;;;;5033952;28;20470;-59
2021/09/20 07:19:08;;;;;;;6.70;6.00;;;;;;;;;;5015657;28;20038;-59
2021/09/20 07:21:38;;;;;;;7.28;5.50;;;;;;;;;;5033356;28;20025;-59
2021/09/20 07:24:06;;;;;;;7.43;6.68;;;;;;;;;;5033912;28;20030;-59
2021/09/20 07:26:32;;;;;;;8.77;6.72;;;;;;;;;;5033047;28;20026;-59
2021/09/20 07:28:59;;;;;;;8.43;6.50;;;;;;;;;;5033122;28;20037;-59
2021/09/20 07:31:25;;;;;;;9.35;6.88;;;;;;;;;;5033180;28;20025;-59
2021/09/20 07:33:51;;;;;;;7.97;6.80;;;;;;;;;;5033755;28;20415;-59
2021/09/20 07:36:17;;;;;;;7.95;6.45;;;;;;;;;;5033153;28;20030;-59
2021/09/20 07:38:43;;;;;;;8.65;7.60;;;;;;;;;;5016068;28;20033;-59
2021/09/20 07:41:09;;;;;;;8.25;7.05;;;;;;;;;;5033103;28;20033;-59
2021/09/20 07:43:36;;;;;;;8.77;6.93;;;;;;;;;;5034058;28;20029;-59
2021/09/20 07:46:02;;;;;;;8.98;6.72;;;;;;;;;;5033068;28;20073;-59
2021/09/20 07:48:29;;;;;;;10.00;7.90;;;;;;;;;;5033780;28;20120;-59
2021/09/20 07:50:55;;;;;;;8.63;7.10;;;;;;;;;;5032961;28;20025;-59
2021/09/20 07:53:21;;;;;;;9.30;6.70;;;;;;;;;;5032736;28;20029;-59
2021/09/20 07:55:47;;;;;;;10.13;7.55;;;;;;;;;;5032935;28;20022;-59
2021/09/20 07:58:17;;;;;;;10.30;8.40;;;;;;;;;;5036016;28;20048;-59
2021/09/20 08:00:44;;;;;;;11.13;8.32;;;;;;;;;;5036473;28;20026;-59
2021/09/20 08:03:10;;;;;;;10.45;8.32;;;;;;;;;;5036479;28;20117;-59
2021/09/20 08:05:37;;;;;;;11.25;8.77;;;;;;;;;;5019393;28;20036;-59
2021/09/20 08:08:04;;;;;;;10.93;7.60;;;;;;;;;;5018189;28;20029;-59
2021/09/20 08:10:30;;;;;;;12.95;9.52;;;;;;;;;;5036869;28;20037;-59
2021/09/20 08:12:58;;;;;;;10.45;8.75;;;;;;;;;;5035678;28;20120;-59
2021/09/20 08:15:25;;;;;;;10.43;8.38;;;;;;;;;;5036745;28;20454;-58
2021/09/20 08:17:51;;;;;;;16.25;8.75;;;;;;;;;;5002619;28;20025;-59
2021/09/20 08:20:18;;;;;;;11.40;10.07;;;;;;;;;;5035897;28;20021;-59
2021/09/20 08:22:49;;;;;;;9.70;8.20;;;;;;;;;;5036244;28;20034;-58
2021/09/20 08:25:16;;;;;;;10.55;8.07;;;;;;;;;;5018277;28;20025;-59
2021/09/20 08:27:42;;;;;;;11.15;7.93;;;;;;;;;;5036602;28;20037;-59
2021/09/20 08:30:11;;;;;;;15.63;11.38;;;;;;;;;;5035680;28;20029;-59
2021/09/20 08:32:37;;;;;;;13.23;10.40;;;;;;;;;;5018084;28;20353;-59
2021/09/20 08:35:04;;;;;;;15.40;11.90;;;;;;;;;;5017842;28;20033;-59
2021/09/20 08:37:30;;;;;;;12.27;10.43;;;;;;;;;;5035400;28;20044;-59
2021/09/20 08:39:56;;;;;;;19.42;11.32;;;;;;;;;;5036554;28;20029;-59
2021/09/20 08:42:25;;;;;;;12.77;10.20;;;;;;;;;;5018118;28;20071;-59
2021/09/20 08:44:51;;;;;;;13.70;10.60;;;;;;;;;;5035523;28;20033;-59
2021/09/20 08:47:18;;;;;;;17.38;11.13;;;;;;;;;;5017412;28;20083;-59
2021/09/20 08:49:44;;;;;;;14.15;11.38;;;;;;;;;;5017822;28;20053;-59
2021/09/20 08:52:11;;;;;;;12.57;10.93;;;;;;;;;;5036253;28;20047;-59
2021/09/20 08:54:37;;;;;;;14.82;11.27;;;;;;;;;;5017923;28;20021;-59
2021/09/20 08:57:04;;;;;;;11.93;10.68;;;;;;;;;;5017531;28;20404;-59
2021/09/20 08:59:30;;;;;;;14.38;11.25;;;;;;;;;;5035805;28;20530;-59
2021/09/20 09:01:57;;;;;;;13.25;10.57;;;;;;;;;;5035451;28;20418;-59
2021/09/20 09:04:30;;;;;;;17.42;11.45;;;;;;;;;;5017521;28;20076;-59
2021/09/20 09:06:59;;;;;;;17.20;11.50;;;;;;;;;;5035675;28;20483;-59
2021/09/20 09:09:26;;;;;;;13.50;11.43;;;;;;;;;;5034447;28;20029;-59
2021/09/20 09:12:07;;;;;;;15.52;10.18;;;;;;;;;;5035517;28;20044;-59
2021/09/20 09:14:38;;;;;;;14.75;11.73;;;;;;;;;;5001967;28;20518;-58
2021/09/20 09:17:09;;;;;;;15.65;11.82;;;;;;;;;;5015596;28;20432;-59
2021/09/20 09:19:41;;;;;;;18.58;12.65;;;;;;;;;;5015589;28;20065;-59
2021/09/20 09:22:07;;;;;;;13.60;11.32;;;;;;;;;;5015777;28;20419;-59
2021/09/20 09:24:34;;;;;;;17.70;12.43;;;;;;;;;;5015092;28;20062;-59
2021/09/20 09:27:01;;;;;;;16.00;11.80;;;;;;;;;;4997742;28;20077;-59
2021/09/20 09:29:31;;;;;;;14.75;12.30;;;;;;;;;;4997599;28;20049;-59
2021/09/20 09:31:58;;;;;;;13.57;12.15;;;;;;;;;;4997587;28;20464;-59
2021/09/20 09:34:32;;;;;;;15.10;11.88;;;;;;;;;;4996992;28;20076;-59
2021/09/20 09:37:11;;;;;;;17.38;12.30;;;;;;;;;;5014760;28;20025;-60
2021/09/20 09:39:40;;;;;;;17.33;10.80;;;;;;;;;;5014843;28;20363;-60
2021/09/20 09:42:20;;;;;;;13.52;10.65;;;;;;;;;;5015154;28;20018;-60
2021/09/20 09:44:46;;;;;;;14.93;11.73;;;;;;;;;;4997489;28;20025;-60
2021/09/20 09:47:23;;;;;;;13.55;11.05;;;;;;;;;;4997270;28;20033;-60
2021/09/20 09:50:10;;;;;;;12.85;10.88;;;;;;;;;;5014751;28;20108;-60
2021/09/20 09:52:37;;;;;;;14.57;12.30;;;;;;;;;;5015065;28;20053;-60
2021/09/20 09:55:03;;;;;;;22.02;10.52;;;;;;;;;;4997219;28;20032;-60
2021/09/20 09:57:29;;;;;;;13.20;10.93;;;;;;;;;;4996813;28;20034;-60
2021/09/20 09:59:57;;;;;;;12.15;10.55;;;;;;;;;;4997464;28;20084;-60
2021/09/20 10:02:30;;;;;;;13.57;10.65;;;;;;;;;;5014857;28;20364;-60
2021/09/20 10:05:09;;;;;;;13.35;9.88;;;;;;;;;;5014432;28;20030;-60
2021/09/20 10:07:53;;;;;;;12.05;10.82;;;;;;;;;;5014651;28;20030;-60
2021/09/20 10:10:21;;;;;;;12.68;10.70;;;;;;;;;;5014889;28;20116;-60
2021/09/20 10:12:51;;;;;;;13.13;11.52;;;;;;;;;;5014873;28;20026;-60
2021/09/20 10:15:19;;;;;;;15.90;12.63;;;;;;;;;;5034727;28;20040;-60
2021/09/20 10:17:46;;;;;;;11.73;10.52;;;;;;;;;;5033324;28;20029;-60
2021/09/20 10:20:18;;;;;;;15.05;11.50;;;;;;;;;;5015600;28;20021;-60
2021/09/20 10:22:44;;;;;;;13.90;12.40;;;;;;;;;;5033666;28;20047;-60
2021/09/20 10:25:14;;;;;;;12.23;10.52;;;;;;;;;;5033292;28;20060;-60
2021/09/20 10:27:40;;;;;;;14.68;11.55;;;;;;;;;;5033372;28;20033;-60
2021/09/20 10:30:08;;;;;;;12.75;11.32;;;;;;;;;;5033908;28;20036;-60
2021/09/20 10:32:35;;;;;;;12.07;10.20;;;;;;;;;;5033709;28;20395;-60
2021/09/20 10:35:20;;;;;;;11.20;8.93;;;;;;;;;;5016593;28;20026;-60
2021/09/20 10:37:47;;;;;;;19.98;11.40;;;;;;;;;;5033779;28;20440;-60
2021/09/20 10:40:13;;;;;;;12.63;11.18;;;;;;;;;;5033619;28;20399;-60
2021/09/20 10:42:48;;;;;;;15.48;11.43;;;;;;;;;;5034247;28;20026;-60
2021/09/20 10:45:34;;;;;;;18.50;10.65;;;;;;;;;;5033844;28;20034;-60
2021/09/20 10:48:23;;;;;;;13.55;10.77;;;;;;;;;;5020487;28;20048;-60
2021/09/20 10:50:58;;;;;;;12.23;9.85;;;;;;;;;;5023224;28;20053;-60
2021/09/20 10:53:34;;;;;;;12.15;10.27;;;;;;;;;;5034353;28;20028;-60
2021/09/20 10:56:02;;;;;;;12.90;11.57;;;;;;;;;;5034667;28;20245;-60
2021/09/20 10:58:32;;;;;;;14.05;11.25;;;;;;;;;;5033426;28;20037;-60
2021/09/20 11:01:15;;;;;;;13.25;10.38;;;;;;;;;;5016219;28;20470;-60
2021/09/20 11:03:45;;;;;;;13.10;9.93;;;;;;;;;;5016439;28;20120;-59
2021/09/20 11:06:24;;;;;;;14.07;11.43;;;;;;;;;;5033499;28;20032;-59
2021/09/20 11:08:59;;;;;;;15.35;11.73;;;;;;;;;;5033266;28;20412;-59
2021/09/20 11:11:43;;;;;;;12.98;10.95;;;;;;;;;;5033386;28;20033;-59
2021/09/20 11:14:20;;;;;;;13.98;10.98;;;;;;;;;;5015685;28;20380;-59
2021/09/20 11:16:56;;;;;;;13.52;10.45;;;;;;;;;;5033258;28;20420;-60
2021/09/20 11:22:16;;;;;;;12.23;10.65;;;;;;;;;;5033347;28;20026;-59
2021/09/20 11:24:56;;;;;;;11.90;10.68;;;;;;;;;;5016477;28;20117;-59
2021/09/20 11:27:22;;;;;;;16.67;9.65;;;;;;;;;;5033133;28;20037;-59
2021/09/20 11:29:55;;;;;;;13.55;9.82;;;;;;;;;;5033292;28;20149;-59
2021/09/20 11:32:21;;;;;;;12.32;10.98;;;;;;;;;;5018043;28;20112;-58
2021/09/20 11:34:51;;;;;;;10.43;9.13;;;;;;;;;;5037256;28;20090;-58
2021/09/20 11:37:20;;;;;;;14.27;10.75;;;;;;;;;;5019195;28;20057;-58
2021/09/20 11:39:53;;;;;;;12.00;10.50;;;;;;;;;;5019531;28;20026;-58
2021/09/20 11:42:21;;;;;;;13.13;9.75;;;;;;;;;;5036960;28;20067;-58
2021/09/20 11:44:48;;;;;;;11.40;10.20;;;;;;;;;;5036494;28;20483;-59
2021/09/20 11:47:23;;;;;;;13.38;10.43;;;;;;;;;;5036687;28;20109;-58
2021/09/20 11:49:52;;;;;;;12.55;9.75;;;;;;;;;;5018810;28;20117;-58
2021/09/20 11:52:36;;;;;;;17.50;9.93;;;;;;;;;;5019708;28;20029;-58
2021/09/20 11:55:03;;;;;;;13.10;9.90;;;;;;;;;;5037006;28;20025;-58
2021/09/20 11:57:40;;;;;;;12.05;10.10;;;;;;;;;;5036649;28;20144;-58
2021/09/20 12:00:07;;;;;;;10.88;9.77;;;;;;;;;;5036596;28;20379;-58
2021/09/20 12:02:43;;;;;;;11.45;10.23;;;;;;;;;;5036316;28;20026;-58
2021/09/20 12:05:11;;;;;;;11.27;10.05;;;;;;;;;;5036678;28;20108;-58
2021/09/20 12:07:45;;;;;;;10.32;9.18;;;;;;;;;;5036494;28;20376;-58
2021/09/20 12:10:12;;;;;;;12.65;9.25;;;;;;;;;;5036935;28;20021;-58
2021/09/20 12:12:38;;;;;;;12.73;9.63;;;;;;;;;;5037120;28;20026;-58
2021/09/20 12:15:11;;;;;;;13.57;9.27;;;;;;;;;;5036164;28;20415;-58
2021/09/20 12:17:44;;;;;;;12.07;10.18;;;;;;;;;;5019081;28;20116;-58
2021/09/20 12:20:11;;;;;;;11.60;9.43;;;;;;;;;;5018314;28;20029;-58
2021/09/20 12:22:38;;;;;;;13.40;9.82;;;;;;;;;;5036143;28;20025;-58
2021/09/20 12:25:23;;;;;;;9.57;8.55;;;;;;;;;;5018302;28;20036;-58
2021/09/20 12:27:49;;;;;;;13.43;8.75;;;;;;;;;;5035849;28;20021;-58
2021/09/20 12:30:16;;;;;;;11.10;9.20;;;;;;;;;;5035881;28;20120;-58
2021/09/20 12:32:43;;;;;;;12.55;10.68;;;;;;;;;;5036267;28;20025;-58
2021/09/20 12:35:09;;;;;;;10.05;8.98;;;;;;;;;;5018374;28;20021;-58
2021/09/20 12:37:35;;;;;;;12.65;9.68;;;;;;;;;;5018513;28;20029;-58
2021/09/20 12:40:22;;;;;;;11.60;9.65;;;;;;;;;;5035583;28;20025;-58
2021/09/20 12:43:11;;;;;;;10.85;8.65;;;;;;;;;;5035342;28;20100;-58
2021/09/20 12:45:45;;;;;;;10.60;9.38;;;;;;;;;;5018299;28;20049;-58
2021/09/20 12:48:14;;;;;;;15.40;8.93;;;;;;;;;;5036038;28;20069;-58
2021/09/20 12:50:41;;;;;;;11.73;10.32;;;;;;;;;;5035385;28;20040;-58
2021/09/20 12:53:07;;;;;;;13.27;10.45;;;;;;;;;;5035588;28;20024;-58
2021/09/20 12:55:36;;;;;;;10.35;9.25;;;;;;;;;;5035526;28;20025;-59
2021/09/20 12:58:03;;;;;;;13.05;9.32;;;;;;;;;;5035533;28;20088;-59
2021/09/20 13:00:34;;;;;;;9.55;8.55;;;;;;;;;;5035686;28;20438;-59
2021/09/20 13:03:04;;;;;;;11.85;8.63;;;;;;;;;;5035258;28;20021;-59
2021/09/20 13:05:30;;;;;;;11.07;9.95;;;;;;;;;;5035288;28;20022;-59
2021/09/20 13:08:05;;;;;;;10.60;8.73;;;;;;;;;;5035136;28;20029;-59
2021/09/20 13:10:35;;;;;;;10.07;7.70;;;;;;;;;;5035528;28;20504;-59
2021/09/20 13:13:01;;;;;;;10.90;9.75;;;;;;;;;;5035294;28;20455;-59
2021/09/20 13:15:30;;;;;;;10.23;8.75;;;;;;;;;;5035725;28;20022;-59
2021/09/20 13:17:59;;;;;;;10.30;8.25;;;;;;;;;;5035597;28;20451;-59
2021/09/20 13:20:28;;;;;;;8.65;7.57;;;;;;;;;;5017457;28;20033;-59
2021/09/20 13:23:01;;;;;;;11.43;8.57;;;;;;;;;;5035585;28;20076;-58
2021/09/20 13:25:31;;;;;;;7.95;7.07;;;;;;;;;;5035723;28;20448;-59
2021/09/20 13:28:02;;;;;;;11.20;8.48;;;;;;;;;;5017991;28;20455;-59
2021/09/20 13:30:29;;;;;;;9.57;8.57;;;;;;;;;;5035104;28;20104;-58
2021/09/20 13:32:55;;;;;;;10.45;7.18;;;;;;;;;;5017690;28;20025;-59
2021/09/20 13:35:33;;;;;;;11.50;9.35;;;;;;;;;;5034958;28;20448;-59
2021/09/20 13:38:00;;;;;;;9.48;8.15;;;;;;;;;;5034612;28;20033;-59
2021/09/20 13:40:26;;;;;;;8.05;7.15;;;;;;;;;;5016967;28;20026;-58
2021/09/20 13:42:52;;;;;;;9.32;8.30;;;;;;;;;;5035451;28;20026;-59
2021/09/20 13:45:18;;;;;;;9.02;6.95;;;;;;;;;;5016837;28;20029;-59
2021/09/20 13:47:44;;;;;;;7.70;6.90;;;;;;;;;;5016888;28;20025;-58
2021/09/20 13:50:11;;;;;;;9.63;7.30;;;;;;;;;;5000410;28;20116;-59
2021/09/20 13:52:38;;;;;;;7.40;6.68;;;;;;;;;;5016795;28;20021;-59
2021/09/20 13:55:08;;;;;;;8.40;7.35;;;;;;;;;;5034167;28;20096;-59
2021/09/20 13:57:34;;;;;;;8.90;7.20;;;;;;;;;;5008990;28;20483;-58
2021/09/20 14:00:04;;;;;;;7.75;6.72;;;;;;;;;;5016685;28;20495;-59
2021/09/20 14:02:30;;;;;;;10.02;7.47;;;;;;;;;;5034474;28;20029;-59
2021/09/20 14:04:56;;;;;;;8.13;6.82;;;;;;;;;;5016444;28;20364;-58
2021/09/20 14:07:22;;;;;;;9.25;7.20;;;;;;;;;;5034150;28;20032;-58
2021/09/20 14:09:49;;;;;;;8.95;7.25;;;;;;;;;;5016467;28;20033;-59
2021/09/20 14:12:15;;;;;;;9.88;6.93;;;;;;;;;;5016414;28;20024;-59
2021/09/20 14:14:41;;;;;;;9.52;7.57;;;;;;;;;;5016284;28;20506;-59
2021/09/20 14:17:08;;;;;;;8.75;7.10;;;;;;;;;;5034003;28;20052;-59
2021/09/20 14:19:34;;;;;;;7.72;6.93;;;;;;;;;;5016359;28;20240;-59
2021/09/20 14:22:00;;;;;;;8.93;6.85;;;;;;;;;;5016878;28;20032;-59
2021/09/20 14:24:26;;;;;;;6.30;5.55;;;;;;;;;;5033770;28;20021;-59
2021/09/20 14:26:52;;;;;;;7.05;6.00;;;;;;;;;;5034143;28;20029;-59
2021/09/20 14:29:18;;;;;;;7.60;6.22;;;;;;;;;;5033719;28;20021;-59
2021/09/20 14:31:44;;;;;;;7.30;5.40;;;;;;;;;;5033961;28;20028;-59
2021/09/20 14:34:10;;;;;;;6.63;5.80;;;;;;;;;;5034246;28;20478;-59
2021/09/20 14:36:36;;;;;;;6.03;5.40;;;;;;;;;;5033315;28;20029;-59
2021/09/20 14:39:04;;;;;;;6.43;5.28;;;;;;;;;;5032653;28;20542;-58
2021/09/20 14:41:30;;;;;;;6.07;5.03;;;;;;;;;;5033542;28;20124;-59
2021/09/20 14:43:56;;;;;;;5.85;5.13;;;;;;;;;;5034402;28;20109;-59